createdAt,value
2019-02-23T00:01:51.156Z,74.37
2019-02-23T00:04:21.919Z,73.97
2019-02-23T00:06:52.988Z,73.87
2019-02-23T00:09:24.798Z,73.83
2019-02-23T00:11:55.477Z,73.41
2019-02-23T00:14:26.237Z,73.23
2019-02-23T00:16:56.861Z,72.10
2019-02-23T00:19:27.597Z,72.10
2019-02-23T00:21:58.581Z,71.32
2019-02-23T00:24:29.365Z,71.32
2019-02-23T00:27:00.291Z,70.09
2019-02-23T00:29:32.039Z,69.97
2019-02-23T00:32:02.997Z,69.71
2019-02-23T00:34:33.737Z,69.38
2019-02-23T00:37:04.459Z,69.07
2019-02-23T00:39:36.328Z,68.19
2019-02-23T00:42:07.279Z,67.54
2019-02-23T00:44:38.206Z,68.02
2019-02-23T00:47:10.611Z,68.02
2019-02-23T00:49:41.622Z,68.20
2019-02-23T00:52:12.890Z,67.38
2019-02-23T00:54:45.596Z,67.00
2019-02-23T00:57:16.295Z,66.23
2019-02-23T00:59:48.605Z,65.99
2019-02-23T01:02:19.338Z,65.26
2019-02-23T01:04:51.424Z,66.17
2019-02-23T01:07:22.125Z,65.41
2019-02-23T01:09:53.120Z,65.04
2019-02-23T01:12:23.639Z,64.78
2019-02-23T01:14:54.541Z,64.78
2019-02-23T01:17:25.149Z,64.41
2019-02-23T01:19:56.279Z,64.46
2019-02-23T01:22:27.307Z,63.81
2019-02-23T01:24:57.953Z,64.06
2019-02-23T01:27:29.318Z,64.04
2019-02-23T01:30:00.361Z,63.84
2019-02-23T01:32:31.309Z,63.79
2019-02-23T01:35:01.923Z,63.79
2019-02-23T01:37:32.567Z,63.56
2019-02-23T01:40:03.449Z,64.25
2019-02-23T01:42:34.498Z,64.67
2019-02-23T01:45:05.170Z,64.46
2019-02-23T01:47:35.655Z,65.70
2019-02-23T01:50:06.981Z,65.48
2019-02-23T01:52:37.782Z,65.22
2019-02-23T01:55:10.731Z,65.15
2019-02-23T01:57:41.903Z,64.90
2019-02-23T02:00:15.424Z,64.90
2019-02-23T02:02:48.509Z,62.99
2019-02-23T02:05:19.369Z,62.29
2019-02-23T02:07:50.267Z,61.53
2019-02-23T02:10:22.982Z,60.72
2019-02-23T02:12:53.804Z,60.88
2019-02-23T02:15:24.431Z,60.42
2019-02-23T02:17:58.355Z,59.25
2019-02-23T02:20:29.051Z,58.90
2019-02-23T02:23:00.655Z,58.53
2019-02-23T02:25:32.678Z,59.35
2019-02-23T02:28:04.183Z,60.05
2019-02-23T02:30:34.739Z,59.06
2019-02-23T02:33:07.668Z,58.78
2019-02-23T02:35:38.696Z,58.43
2019-02-23T02:38:11.309Z,58.04
2019-02-23T02:40:42.557Z,57.57
2019-02-23T02:43:14.345Z,56.86
2019-02-23T02:45:46.379Z,56.93
2019-02-23T02:48:17.024Z,57.15
2019-02-23T02:50:50.095Z,56.32
2019-02-23T02:53:22.690Z,56.51
2019-02-23T02:55:53.455Z,55.69
2019-02-23T02:58:24.408Z,53.37
2019-02-23T03:00:55.376Z,52.89
2019-02-23T03:03:26.453Z,51.96
2019-02-23T03:05:57.142Z,51.65
2019-02-23T03:08:27.671Z,51.50
2019-02-23T03:10:58.434Z,51.40
2019-02-23T03:13:30.531Z,50.66
2019-02-23T03:16:01.418Z,51.27
2019-02-23T03:18:32.513Z,51.22
2019-02-23T03:21:04.885Z,51.64
2019-02-23T03:23:35.672Z,51.79
2019-02-23T03:26:06.316Z,53.42
2019-02-23T03:28:37.222Z,51.95
2019-02-23T03:31:07.921Z,52.05
2019-02-23T03:33:38.696Z,50.72
2019-02-23T03:36:10.505Z,49.96
2019-02-23T03:38:41.267Z,48.45
2019-02-23T03:41:11.874Z,49.20
2019-02-23T03:43:42.627Z,49.40
2019-02-23T03:46:13.736Z,50.66
2019-02-23T03:48:44.929Z,51.28
2019-02-23T03:51:17.679Z,52.52
2019-02-23T03:53:48.296Z,53.73
2019-02-23T03:56:19.399Z,54.84
2019-02-23T03:58:51.266Z,55.17
2019-02-23T04:01:21.940Z,55.92
2019-02-23T04:03:52.666Z,56.53
2019-02-23T04:06:24.666Z,57.74
2019-02-23T04:08:55.345Z,58.00
2019-02-23T04:11:27.807Z,58.32
2019-02-23T04:13:59.968Z,58.15
2019-02-23T04:16:30.745Z,57.57
2019-02-23T04:19:01.264Z,57.29
2019-02-23T04:21:32.101Z,57.37
2019-02-23T04:24:04.209Z,57.26
2019-02-23T04:26:35.055Z,56.75
2019-02-23T04:29:05.969Z,56.79
2019-02-23T04:31:36.808Z,57.42
2019-02-23T04:34:08.447Z,57.56
2019-02-23T04:36:40.576Z,57.57
2019-02-23T04:39:11.684Z,57.96
2019-02-23T04:41:43.560Z,56.24
2019-02-23T04:44:14.631Z,55.53
2019-02-23T04:46:46.274Z,56.48
2019-02-23T04:49:16.923Z,56.54
2019-02-23T04:51:47.492Z,55.90
2019-02-23T04:54:18.155Z,56.16
2019-02-23T04:56:50.526Z,56.88
2019-02-23T04:59:21.526Z,57.31
2019-02-23T05:01:52.246Z,56.83
2019-02-23T05:04:22.845Z,56.57
2019-02-23T05:06:55.525Z,57.19
2019-02-23T05:09:26.966Z,56.68
2019-02-23T05:11:57.936Z,55.72
2019-02-23T05:14:28.719Z,55.62
2019-02-23T05:16:59.710Z,55.96
2019-02-23T05:19:33.723Z,55.86
2019-02-23T05:22:04.226Z,56.56
2019-02-23T05:24:34.979Z,56.90
2019-02-23T05:27:05.984Z,57.35
2019-02-23T05:29:36.466Z,56.04
2019-02-23T05:32:07.296Z,56.25
2019-02-23T05:34:38.867Z,56.60
2019-02-23T05:37:11.328Z,55.97
2019-02-23T05:39:42.065Z,55.45
2019-02-23T05:42:13.222Z,55.04
2019-02-23T05:44:44.742Z,54.43
2019-02-23T05:47:15.403Z,54.38
2019-02-23T05:49:47.234Z,53.97
2019-02-23T05:52:21.022Z,53.33
2019-02-23T05:54:51.929Z,53.93
2019-02-23T05:57:22.533Z,53.83
2019-02-23T05:59:54.443Z,52.56
2019-02-23T06:02:25.303Z,51.78
2019-02-23T06:04:55.922Z,51.98
2019-02-23T06:07:26.619Z,51.29
2019-02-23T06:09:57.871Z,51.11
2019-02-23T06:12:28.520Z,51.02
2019-02-23T06:14:59.226Z,51.30
2019-02-23T06:17:30.285Z,50.91
2019-02-23T06:20:01.358Z,51.24
2019-02-23T06:22:32.144Z,50.79
2019-02-23T06:25:03.466Z,50.48
2019-02-23T06:27:34.025Z,50.60
2019-02-23T06:30:06.413Z,50.07
2019-02-23T06:32:38.279Z,50.07
2019-02-23T06:35:10.247Z,50.46
2019-02-23T06:37:40.839Z,49.60
2019-02-23T06:40:12.220Z,49.60
2019-02-23T06:42:42.840Z,49.90
2019-02-23T06:45:13.138Z,49.90
2019-02-23T06:47:44.210Z,50.18
2019-02-23T06:50:15.015Z,50.87
2019-02-23T06:52:45.594Z,50.49
2019-02-23T06:55:17.002Z,50.99
2019-02-23T06:57:49.177Z,50.99
2019-02-23T07:00:19.887Z,50.99
2019-02-23T07:02:50.636Z,50.32
2019-02-23T07:05:25.298Z,51.95
2019-02-23T07:07:55.882Z,51.68
2019-02-23T07:10:26.620Z,51.68
2019-02-23T07:12:57.407Z,50.54
2019-02-23T07:15:28.218Z,51.03
2019-02-23T07:17:59.192Z,50.98
2019-02-23T07:20:29.774Z,50.98
2019-02-23T07:23:01.965Z,51.93
2019-02-23T07:25:33.109Z,50.83
2019-02-23T07:28:04.530Z,51.59
2019-02-23T07:30:36.250Z,50.63
2019-02-23T07:33:09.088Z,51.17
2019-02-23T07:35:41.125Z,51.67
2019-02-23T07:38:12.135Z,51.82
2019-02-23T07:40:42.880Z,51.50
2019-02-23T07:43:15.000Z,51.15
2019-02-23T07:45:45.823Z,51.97
2019-02-23T07:48:18.166Z,52.52
2019-02-23T07:50:48.808Z,52.41
2019-02-23T07:53:21.831Z,51.69
2019-02-23T07:55:53.083Z,51.49
2019-02-23T07:58:23.698Z,51.03
2019-02-23T08:00:55.623Z,51.19
2019-02-23T08:03:26.378Z,51.06
2019-02-23T08:05:57.260Z,51.55
2019-02-23T08:08:28.222Z,51.67
2019-02-23T08:11:03.440Z,52.57
2019-02-23T08:13:35.271Z,53.05
2019-02-23T08:16:05.812Z,52.48
2019-02-23T08:18:37.233Z,52.37
2019-02-23T08:21:07.879Z,50.36
2019-02-23T08:23:38.632Z,51.08
2019-02-23T08:26:09.601Z,51.91
2019-02-23T08:28:41.125Z,51.91
2019-02-23T08:31:13.400Z,51.46
2019-02-23T08:33:44.495Z,51.46
2019-02-23T08:36:15.505Z,51.11
2019-02-23T08:38:46.047Z,51.42
2019-02-23T08:41:16.678Z,52.12
2019-02-23T08:43:47.353Z,51.34
2019-02-23T08:46:18.100Z,51.54
2019-02-23T08:48:49.737Z,50.34
2019-02-23T08:51:20.649Z,49.97
2019-02-23T08:53:54.042Z,49.44
2019-02-23T08:56:25.775Z,48.90
2019-02-23T08:58:57.476Z,49.13
2019-02-23T09:01:28.989Z,50.00
2019-02-23T09:04:00.783Z,50.88
2019-02-23T09:06:33.150Z,49.36
2019-02-23T09:09:03.865Z,47.86
2019-02-23T09:11:34.975Z,47.30
2019-02-23T09:14:05.616Z,48.61
2019-02-23T09:16:36.164Z,48.00
2019-02-23T09:19:07.387Z,48.36
2019-02-23T09:21:38.880Z,48.60
2019-02-23T09:24:09.749Z,51.12
2019-02-23T09:26:42.180Z,51.54
2019-02-23T09:29:14.827Z,50.60
2019-02-23T09:31:45.886Z,50.85
2019-02-23T09:34:16.711Z,51.55
2019-02-23T09:36:47.591Z,50.34
2019-02-23T09:39:18.602Z,50.81
2019-02-23T09:41:49.528Z,51.76
2019-02-23T09:44:20.138Z,51.12
2019-02-23T09:46:51.014Z,49.19
2019-02-23T09:49:22.118Z,50.22
2019-02-23T09:51:53.599Z,50.41
2019-02-23T09:54:24.325Z,50.65
2019-02-23T09:56:54.958Z,50.73
2019-02-23T09:59:28.067Z,49.90
2019-02-23T10:01:59.044Z,49.92
2019-02-23T10:04:30.877Z,49.43
2019-02-23T10:07:01.941Z,50.42
2019-02-23T10:09:34.397Z,50.58
2019-02-23T10:12:05.179Z,50.04
2019-02-23T10:14:35.979Z,51.00
2019-02-23T10:17:09.218Z,50.12
2019-02-23T10:19:39.639Z,50.02
2019-02-23T10:22:11.092Z,49.94
2019-02-23T10:24:41.922Z,50.25
2019-02-23T10:27:13.633Z,51.43
2019-02-23T10:29:43.940Z,50.74
2019-02-23T10:32:14.202Z,50.84
2019-02-23T10:34:44.746Z,50.71
2019-02-23T10:37:22.616Z,49.61
2019-02-23T10:39:53.400Z,50.76
2019-02-23T10:42:23.805Z,49.35
2019-02-23T10:44:54.536Z,49.59
2019-02-23T10:47:25.783Z,50.98
2019-02-23T10:49:56.380Z,50.79
2019-02-23T10:52:26.795Z,49.96
2019-02-23T10:54:57.236Z,50.19
2019-02-23T10:57:27.910Z,50.90
2019-02-23T10:59:58.113Z,49.35
2019-02-23T11:02:28.680Z,50.58
2019-02-23T11:04:59.089Z,51.34
2019-02-23T11:07:29.354Z,50.34
2019-02-23T11:09:59.847Z,49.13
2019-02-23T11:12:30.250Z,50.18
2019-02-23T11:15:00.649Z,48.86
2019-02-23T11:17:31.489Z,50.71
2019-02-23T11:20:02.366Z,50.29
2019-02-23T11:22:33.403Z,50.85
2019-02-23T11:25:05.326Z,51.24
2019-02-23T11:27:36.220Z,51.30
2019-02-23T11:30:07.592Z,50.17
2019-02-23T11:32:39.651Z,50.22
2019-02-23T11:35:10.771Z,50.72
2019-02-23T11:37:41.550Z,50.40
2019-02-23T11:42:53.258Z,50.40
2019-02-23T11:45:25.292Z,51.41
2019-02-23T11:47:55.995Z,51.17
2019-02-23T11:50:26.795Z,50.46
2019-02-23T11:52:57.573Z,50.56
2019-02-23T11:55:28.230Z,50.88
2019-02-23T11:57:59.458Z,49.05
2019-02-23T12:00:30.946Z,49.76
2019-02-23T12:03:02.793Z,49.57
2019-02-23T12:05:34.468Z,50.08
2019-02-23T12:08:05.059Z,50.31
2019-02-23T12:10:35.690Z,50.22
2019-02-23T12:13:07.482Z,48.74
2019-02-23T12:15:38.229Z,49.02
2019-02-23T12:18:08.990Z,49.44
2019-02-23T12:20:39.738Z,49.19
2019-02-23T12:23:10.779Z,50.22
2019-02-23T12:25:41.421Z,51.57
2019-02-23T12:28:11.982Z,49.75
2019-02-23T12:30:42.888Z,50.43
2019-02-23T12:33:16.068Z,50.95
2019-02-23T12:35:46.594Z,49.65
2019-02-23T12:38:17.439Z,49.59
2019-02-23T12:40:48.053Z,50.07
2019-02-23T12:43:18.717Z,50.60
2019-02-23T12:45:49.401Z,50.34
2019-02-23T12:48:20.359Z,47.74
2019-02-23T12:50:51.622Z,47.99
2019-02-23T12:53:22.277Z,48.31
2019-02-23T12:55:52.944Z,49.40
2019-02-23T12:58:24.806Z,49.36
2019-02-23T13:00:55.612Z,50.31
2019-02-23T13:03:26.474Z,51.18
2019-02-23T13:05:58.828Z,51.60
2019-02-23T13:08:56.451Z,51.92
2019-02-23T13:11:27.573Z,51.53
2019-02-23T13:14:30.884Z,50.97
2019-02-23T13:17:24.031Z,50.92
2019-02-23T13:20:30.730Z,51.29
2019-02-23T13:23:28.189Z,51.80
2019-02-23T13:26:17.082Z,51.31
2019-02-23T13:29:40.527Z,50.99
2019-02-23T13:32:22.749Z,51.67
2019-02-23T13:35:24.341Z,52.15
2019-02-23T13:38:31.200Z,51.43
2019-02-23T13:41:29.990Z,51.91
2019-02-23T13:45:02.131Z,52.81
2019-02-23T13:48:28.111Z,52.88
2019-02-23T13:51:42.833Z,54.07
2019-02-23T13:54:41.414Z,53.84
2019-02-23T13:57:48.942Z,52.99
2019-02-23T14:01:03.074Z,54.56
2019-02-23T14:04:13.336Z,53.16
2019-02-23T14:07:12.920Z,53.19
2019-02-23T14:10:18.878Z,52.83
2019-02-23T14:13:21.803Z,53.04
2019-02-23T14:16:32.023Z,53.89
2019-02-23T14:20:10.376Z,54.82
2019-02-23T14:23:16.243Z,54.31
2019-02-23T14:26:39.314Z,53.91
2019-02-23T14:29:31.347Z,53.78
2019-02-23T14:32:40.832Z,53.45
2019-02-23T14:35:45.224Z,54.06
2019-02-23T14:38:37.526Z,54.14
2019-02-23T14:41:19.991Z,54.39
2019-02-23T14:44:35.262Z,53.70
2019-02-23T14:47:15.030Z,53.38
2019-02-23T14:50:03.602Z,54.24
2019-02-23T14:53:26.616Z,54.09
2019-02-23T14:56:36.801Z,54.68
2019-02-23T14:59:28.172Z,55.04
2019-02-23T15:02:31.924Z,55.63
2019-02-23T15:05:12.308Z,55.33
2019-02-23T15:08:14.347Z,55.98
2019-02-23T15:11:37.306Z,56.21
2019-02-23T15:15:09.875Z,55.96
2019-02-23T15:18:24.234Z,56.11
2019-02-23T15:21:10.274Z,56.07
2019-02-23T15:24:14.746Z,56.39
2019-02-23T15:27:16.681Z,56.45
2019-02-23T15:30:13.765Z,56.69
2019-02-23T15:33:43.181Z,56.75
2019-02-23T15:36:32.096Z,56.68
2019-02-23T15:39:28.895Z,57.36
2019-02-23T15:42:41.936Z,57.45
2019-02-23T15:45:53.734Z,57.75
2019-02-23T15:49:04.661Z,57.89
2019-02-23T15:51:36.570Z,57.84
2019-02-23T15:54:07.784Z,58.28
2019-02-23T15:56:38.644Z,58.06
2019-02-23T15:59:09.388Z,57.76
2019-02-23T16:01:40.036Z,57.90
2019-02-23T16:04:11.198Z,58.61
2019-02-23T16:06:42.931Z,58.70
2019-02-23T16:09:13.728Z,58.39
2019-02-23T16:11:45.379Z,58.45
2019-02-23T16:14:16.638Z,58.72
2019-02-23T16:16:47.734Z,58.86
2019-02-23T16:19:18.394Z,58.96
2019-02-23T16:21:52.723Z,59.33
2019-02-23T16:24:22.020Z,59.35
2019-02-23T16:26:53.159Z,59.69
2019-02-23T16:29:24.036Z,59.53
2019-02-23T16:31:54.714Z,59.26
2019-02-23T16:34:27.402Z,59.63
2019-02-23T16:36:58.511Z,59.98
2019-02-23T16:39:29.188Z,60.01
2019-02-23T16:42:00.045Z,59.96
2019-02-23T16:44:31.681Z,59.90
2019-02-23T16:47:02.331Z,59.77
2019-02-23T16:49:34.136Z,59.79
2019-02-23T16:52:04.801Z,59.85
2019-02-23T16:54:35.473Z,59.57
2019-02-23T16:57:06.005Z,59.75
2019-02-23T16:59:36.695Z,59.77
2019-02-23T17:02:07.391Z,60.07
2019-02-23T17:04:39.031Z,60.24
2019-02-23T17:07:10.880Z,60.36
2019-02-23T17:09:41.433Z,60.21
2019-02-23T17:12:11.969Z,60.58
2019-02-23T17:14:43.010Z,60.78
2019-02-23T17:17:14.567Z,60.44
2019-02-23T17:19:45.217Z,60.59
2019-02-23T17:22:16.519Z,60.73
2019-02-23T17:24:47.413Z,61.08
2019-02-23T17:27:18.339Z,61.07
2019-02-23T17:29:49.369Z,61.08
2019-02-23T17:32:20.127Z,61.38
2019-02-23T17:34:50.831Z,61.26
2019-02-23T17:37:22.113Z,61.21
2019-02-23T17:39:52.708Z,61.15
2019-02-23T17:42:28.081Z,61.21
2019-02-23T17:44:56.354Z,61.48
2019-02-23T17:47:27.373Z,61.49
2019-02-23T17:49:58.669Z,61.81
2019-02-23T17:52:30.290Z,61.27
2019-02-23T17:55:04.434Z,61.58
2019-02-23T17:57:35.035Z,61.12
2019-02-23T18:00:05.987Z,61.16
2019-02-23T18:02:37.828Z,61.21
2019-02-23T18:05:09.935Z,61.09
2019-02-23T18:07:41.604Z,61.30
2019-02-23T18:10:12.191Z,61.91
2019-02-23T18:12:44.497Z,62.20
2019-02-23T18:15:15.258Z,62.44
2019-02-23T18:17:46.281Z,62.66
2019-02-23T18:20:16.957Z,62.78
2019-02-23T18:22:48.774Z,63.00
2019-02-23T18:25:20.729Z,62.72
2019-02-23T18:27:51.835Z,62.68
2019-02-23T18:30:22.562Z,63.12
2019-02-23T18:32:53.600Z,63.24
2019-02-23T18:35:24.099Z,63.57
2019-02-23T18:37:54.809Z,63.71
2019-02-23T18:40:25.678Z,64.19
2019-02-23T18:42:56.301Z,64.55
2019-02-23T18:45:27.469Z,64.70
2019-02-23T18:47:58.124Z,65.03
2019-02-23T18:50:28.881Z,65.42
2019-02-23T18:52:59.731Z,65.81
2019-02-23T18:55:30.614Z,66.08
2019-02-23T18:58:01.424Z,66.75
2019-02-23T19:00:32.422Z,67.02
2019-02-23T19:03:03.437Z,67.18
2019-02-23T19:05:33.755Z,67.32
2019-02-23T19:08:04.407Z,67.23
2019-02-23T19:10:35.113Z,67.44
2019-02-23T19:13:08.454Z,67.40
2019-02-23T19:15:40.806Z,67.64
2019-02-23T19:18:11.475Z,67.82
2019-02-23T19:20:42.422Z,68.36
2019-02-23T19:23:13.176Z,68.53
2019-02-23T19:25:44.020Z,68.52
2019-02-23T19:28:15.813Z,68.56
2019-02-23T19:30:46.629Z,68.69
2019-02-23T19:33:17.237Z,68.81
2019-02-23T19:35:48.163Z,68.88
2019-02-23T19:38:20.032Z,68.79
2019-02-23T19:40:51.000Z,68.79
2019-02-23T19:43:21.432Z,68.61
2019-02-23T19:45:52.176Z,68.18
2019-02-23T19:48:22.904Z,68.21
2019-02-23T19:50:56.995Z,68.24
2019-02-23T19:53:27.741Z,68.66
2019-02-23T19:55:58.360Z,68.21
2019-02-23T19:58:29.984Z,68.36
2019-02-23T20:01:00.655Z,68.69
2019-02-23T20:03:31.851Z,68.69
2019-02-23T20:06:02.480Z,68.95
2019-02-23T20:08:33.107Z,69.28
2019-02-23T20:11:03.586Z,69.28
2019-02-23T20:13:34.771Z,69.34
2019-02-23T20:16:05.357Z,69.40
2019-02-23T20:18:36.004Z,69.40
2019-02-23T20:21:06.909Z,69.52
2019-02-23T20:23:38.658Z,69.68
2019-02-23T20:26:10.087Z,69.69
2019-02-23T20:28:41.423Z,69.69
2019-02-23T20:31:12.155Z,69.82
2019-02-23T20:33:42.881Z,70.12
2019-02-23T20:36:13.658Z,70.26
2019-02-23T20:38:44.575Z,70.67
2019-02-23T20:41:15.493Z,70.67
2019-02-23T20:43:47.480Z,70.76
2019-02-23T20:46:18.161Z,70.83
2019-02-23T20:48:49.991Z,70.87
2019-02-23T20:51:20.856Z,70.74
2019-02-23T20:53:51.537Z,71.06
2019-02-23T20:56:22.355Z,71.08
2019-02-23T20:58:53.546Z,71.25
2019-02-23T21:01:24.134Z,71.46
2019-02-23T21:03:54.932Z,71.29
2019-02-23T21:06:25.568Z,71.49
2019-02-23T21:08:57.766Z,71.64
2019-02-23T21:11:28.470Z,71.57
2019-02-23T21:13:59.307Z,71.35
2019-02-23T21:16:29.919Z,71.39
2019-02-23T21:19:01.280Z,70.93
2019-02-23T21:21:33.528Z,70.86
2019-02-23T21:24:04.216Z,70.79
2019-02-23T21:26:34.958Z,70.71
2019-02-23T21:29:05.801Z,70.77
2019-02-23T21:31:36.559Z,70.86
2019-02-23T21:34:08.597Z,70.79
2019-02-23T21:36:39.216Z,70.78
2019-02-23T21:39:10.738Z,70.63
2019-02-23T21:41:41.851Z,70.55
2019-02-23T21:44:12.528Z,70.98
2019-02-23T21:46:43.212Z,71.15
2019-02-23T21:49:13.970Z,70.79
2019-02-23T21:51:45.675Z,71.17
2019-02-23T21:54:18.178Z,70.58
2019-02-23T21:56:49.022Z,70.16
2019-02-23T21:59:20.735Z,70.19
2019-02-23T22:01:51.649Z,70.17
2019-02-23T22:04:22.652Z,70.14
2019-02-23T22:06:54.565Z,70.10
2019-02-23T22:09:25.160Z,69.78
2019-02-23T22:11:55.860Z,69.78
2019-02-23T22:14:26.852Z,69.83
2019-02-23T22:16:57.579Z,69.92
2019-02-23T22:19:27.998Z,69.83
2019-02-23T22:21:58.986Z,70.17
2019-02-23T22:24:30.892Z,70.12
2019-02-23T22:27:01.548Z,70.22
2019-02-23T22:29:33.499Z,70.35
2019-02-23T22:32:04.356Z,70.39
2019-02-23T22:34:34.897Z,70.37
2019-02-23T22:37:07.317Z,70.26
2019-02-23T22:39:37.977Z,70.06
2019-02-23T22:42:09.694Z,70.42
2019-02-23T22:44:40.533Z,70.44
2019-02-23T22:47:12.431Z,70.81
2019-02-23T22:49:43.182Z,70.99
2019-02-23T22:52:14.066Z,70.95
2019-02-23T22:54:44.868Z,71.27
2019-02-23T22:57:15.826Z,71.41
2019-02-23T22:59:47.463Z,71.60
2019-02-23T23:02:19.020Z,71.52
2019-02-23T23:04:49.936Z,71.37
2019-02-23T23:07:21.701Z,71.95
2019-02-23T23:09:52.519Z,72.26
2019-02-23T23:12:23.732Z,72.12
2019-02-23T23:14:54.485Z,72.43
2019-02-23T23:17:25.259Z,72.37
2019-02-23T23:19:57.090Z,72.44
2019-02-23T23:22:27.886Z,72.47
2019-02-23T23:24:59.655Z,72.35
2019-02-23T23:27:30.263Z,72.18
2019-02-23T23:30:01.334Z,72.09
2019-02-23T23:32:33.855Z,72.39
2019-02-23T23:35:05.549Z,72.42
2019-02-23T23:37:37.501Z,72.28
2019-02-23T23:40:08.365Z,72.50
2019-02-23T23:42:39.413Z,72.43
2019-02-23T23:45:10.243Z,72.65
2019-02-23T23:47:40.925Z,72.37
2019-02-23T23:50:13.953Z,72.33
2019-02-23T23:52:45.018Z,72.52
2019-02-23T23:55:15.792Z,72.42
2019-02-23T23:57:46.934Z,72.30
